Hjorring, Denmark
Current Conditions -  °F | °C
As of 12:50 AM on Saturday 20 Dec 2014 (Local Time) from EKYT Reporting Station
Scattered Clouds Scattered Clouds  
Wind Chill: 32°   Ceiling: Unl
Heat Index: 41°   Visibility: 6mi
Dew Point: 36°   Wind: 18mph
Humidity: 81%   Direction: 260°W
Pressure: 29.38"   Gusts: 30mph
Location:  57.46°N, 9.98°E
Report Text: EKYT 192350Z 26016G26KT 9999 FEW023CB SCT040 05/02 Q0995
Loading
Personal Weather Stations






























Interactive Weather Map New forecast layout! Learn more

10-Day Weather Forecast

Advertisements
Track Severe Weather on mobile